• Join FlightAware (Why Join?)
  • Login
  • US Flag 
06:27PM EDT


 

Airport Tracker/Info


-or-


 

Live Flight TrackerFlight Track Log ✈ CPT8773 ✈ 02-Oct-2013 ✈ KCPR - KCOD

Flight Track Log - Related Links

Times and Time Zones

All times are in EDT time to prevent confusion due to time zone crossing. See the CPT8773 flight status page for this flight to view local times or setup timezone preferences in your user account.

Time Position Orientation Groundspeed Altitude Reporting Facility
EDT Latitude Longitude Course Direction KTS MPH feet Rate Location/Type
10:29AM 42.9825 -106.4778 305° West 110 127 7,400  Level Denver Center
10:30AM 43.0175 -106.4883 348° North 113 130 7,900 480 Climbing Denver Center
10:31AM 43.0494 -106.4961 350° North 117 135 8,400 420 Climbing Denver Center
10:32AM 43.0883 -106.5072 348° North 122 140 8,800 360 Climbing Denver Center
10:33AM 43.2655 -107.0127 305° West  Level Estimated
10:33AM 43.1217 -106.5139 352° North 124 143 9,200  Level Denver Center
10:34AM 43.2910 -107.0521 305° West  Level Estimated
10:34AM 43.1622 -106.5253 348° North 128 147 9,600  Level Denver Center
10:35AM 43.1958 -106.5383 344° North 131 151 10,000 300 Climbing Denver Center
10:36AM 43.2350 -106.5522 346° North 131 151 10,300 240 Climbing Denver Center
10:37AM 43.2550 -106.5903 306° West 130 150 10,600 240 Climbing Denver Center
10:38AM 43.2731 -106.6214 309° West 130 150 10,900 360 Climbing Denver Center
10:39AM 43.2947 -106.6700 301° West 131 151 11,300 300 Climbing Salt Lake Center
10:40AM 43.3175 -106.7072 310° West 133 153 11,500 300 Climbing Salt Lake Center
10:41AM 43.3425 -106.7536 307° West 135 155 12,000 240 Climbing Salt Lake Center
10:42AM 43.3639 -106.7933 307° West 136 157 12,000  Level Salt Lake Center
10:43AM 43.3917 -106.8461 306° West 147 169 12,000  Level Salt Lake Center
10:44AM 43.4128 -106.8925 302° West 151 174 12,000  Level Salt Lake Center
10:45AM 43.4397 -106.9425 307° West 152 175 12,000  Level Salt Lake Center
10:46AM 43.4650 -106.9886 307° West 151 174 12,000  Level Salt Lake Center
10:47AM 43.4900 -107.0367 306° West 153 176 12,000  Level Salt Lake Center
10:48AM 43.5119 -107.0831 303° West 148 170 12,000  Level Salt Lake Center
10:49AM 43.5342 -107.1308 303° West 148 170 12,000  Level Salt Lake Center
10:50AM 43.5633 -107.1831 308° West 145 167 12,000  Level Salt Lake Center
10:51AM 43.5869 -107.2289 305° West 145 167 12,000  Level Salt Lake Center
10:52AM 43.6111 -107.2764 305° West 147 169 12,000  Level Salt Lake Center
10:53AM 43.6350 -107.3228 305° West 149 171 12,000  Level Salt Lake Center
10:54AM 43.6597 -107.3692 306° West 149 171 12,000 -120 Level Salt Lake Center
10:55AM 43.6839 -107.4161 305° West 150 173 11,800 -300 Descending Salt Lake Center
10:56AM 43.7114 -107.4631 309° West 153 176 11,500 -360 Descending Salt Lake Center
10:57AM 43.7442 -107.5217 308° West 157 181 11,100 -420 Descending Salt Lake Center
10:58AM 43.7694 -107.5725 305° West 158 182 10,700 -300 Descending Salt Lake Center
11:00AM 43.7950 -107.6253 304° West 161 185 10,500 -120 Descending Salt Lake Center
11:01AM 43.8200 -107.6764 304° West 161 185 10,500  Level Salt Lake Center
11:03AM 43.8694 -107.7761 305° West 159 183 10,500  Level Salt Lake Center
11:04AM 43.9006 -107.8353 306° West 159 183 10,600  Climbing Salt Lake Center
11:05AM 43.9261 -107.8842 306° West 158 182 10,600  Level Salt Lake Center
11:06AM 43.9511 -107.9331 305° West 157 181 10,600 -60 Level Salt Lake Center
11:07AM 43.9772 -107.9803 308° West 156 180 10,500 -180 Descending Salt Lake Center
11:08AM 44.0086 -108.0236 315° West 157 181 10,300 -240 Descending Salt Lake Center
11:09AM 44.0394 -108.0681 314° West 159 183 10,100 -300 Descending Salt Lake Center
11:10AM 44.0761 -108.1242 312° West 161 185 9,800 -300 Descending Salt Lake Center
11:11AM 44.1053 -108.1711 311° West 161 185 9,600 -240 Descending Salt Lake Center
11:12AM 44.1356 -108.2169 313° West 161 185 9,400 -240 Descending Salt Lake Center
11:13AM 44.1658 -108.2614 314° West 160 184 9,200 -180 Descending Salt Lake Center
11:14AM 44.1958 -108.3081 312° West 160 184 9,100 -180 Descending Salt Lake Center
11:15AM 44.2250 -108.3567 310° West 161 185 8,900 -240 Descending Salt Lake Center
11:16AM 44.2536 -108.4197 302° West 161 185 8,700 -180 Descending Salt Lake Center
11:17AM 44.2764 -108.4728 301° West 160 184 8,600 -120 Descending Salt Lake Center
11:18AM 44.2986 -108.5247 301° West 159 183 8,500  Descending Salt Lake Center
11:19AM 44.3206 -108.5750 301° West 156 180 8,600  Climbing Salt Lake Center
11:20AM 44.3414 -108.6236 301° West 152 175 8,500  Descending Salt Lake Center
11:21AM 44.3617 -108.6714 301° West 148 170 8,600  Climbing Salt Lake Center
11:22AM 44.3881 -108.7300 302° West 147 169 8,600  Level Salt Lake Center
11:23AM 44.4103 -108.7781 303° West 148 170 8,600 -60 Level Salt Lake Center
11:24AM 44.4314 -108.8267 301° West 147 169 8,500 -120 Descending Salt Lake Center
11:25AM 44.4536 -108.8769 302° West 149 171 8,400 -360 Descending Salt Lake Center
11:26AM 44.4764 -108.9283 302° West 151 174 7,800 -900 Descending Salt Lake Center
11:27AM 44.4994 -108.9783 303° West 153 176 6,600 -1,200 Descending Salt Lake Center